createdAt,value
2022-12-31T00:03:44.962Z,6.97
2022-12-31T00:04:18.794Z,6.91
2022-12-31T00:04:52.439Z,6.92
2022-12-31T00:05:25.933Z,6.99
2022-12-31T00:05:59.517Z,7.01
2022-12-31T00:06:35.657Z,7.01
2022-12-31T00:07:09.140Z,7.01
2022-12-31T00:08:14.802Z,7.02
2022-12-31T00:08:49.289Z,7.07
2022-12-31T00:09:22.780Z,7.05
2022-12-31T00:09:56.231Z,7.03
2022-12-31T00:10:30.398Z,7.08
2022-12-31T00:11:04.062Z,7.09
2022-12-31T00:11:38.393Z,7.07
2022-12-31T00:12:12.066Z,7.08
2022-12-31T00:12:45.623Z,7.07
2022-12-31T00:13:19.197Z,7.08
2022-12-31T00:13:53.895Z,7.13
2022-12-31T00:14:27.432Z,7.11
2022-12-31T00:15:00.767Z,7.16
2022-12-31T00:15:35.128Z,7.15
2022-12-31T00:16:12.384Z,7.13
2022-12-31T00:16:46.119Z,7.17
2022-12-31T00:17:19.627Z,7.17
2022-12-31T00:17:55.729Z,7.16
2022-12-31T00:18:29.135Z,7.29
2022-12-31T00:19:04.017Z,7.23
2022-12-31T00:19:37.676Z,7.20
2022-12-31T00:20:11.448Z,7.26
2022-12-31T00:20:44.832Z,7.26
2022-12-31T00:21:19.643Z,7.25
2022-12-31T00:21:53.219Z,7.26
2022-12-31T00:22:26.688Z,7.21
2022-12-31T00:23:00.190Z,7.22
2022-12-31T00:23:33.596Z,7.20
2022-12-31T00:24:08.004Z,7.20
2022-12-31T00:24:41.599Z,7.18
2022-12-31T00:25:15.076Z,7.20
2022-12-31T00:25:48.483Z,7.20
2022-12-31T00:26:27.470Z,7.21
2022-12-31T00:27:00.947Z,7.19
2022-12-31T00:27:34.390Z,7.19
2022-12-31T00:28:07.908Z,7.21
2022-12-31T00:28:42.143Z,7.23
2022-12-31T00:29:15.659Z,7.24
2022-12-31T00:29:49.168Z,7.25
2022-12-31T00:30:22.597Z,7.26
2022-12-31T00:30:56.182Z,7.28
2022-12-31T00:31:32.629Z,7.30
2022-12-31T00:32:06.190Z,7.29
2022-12-31T00:32:39.655Z,7.30
2022-12-31T00:33:13.556Z,7.31
2022-12-31T00:33:47.555Z,7.30
2022-12-31T00:34:21.686Z,7.31
2022-12-31T00:34:55.193Z,7.32
2022-12-31T00:35:28.603Z,7.33
2022-12-31T00:36:07.184Z,7.35
2022-12-31T00:36:42.768Z,7.39
2022-12-31T00:37:16.410Z,7.42
2022-12-31T00:37:52.843Z,7.41
2022-12-31T00:38:26.257Z,7.43
2022-12-31T00:39:01.375Z,7.42
2022-12-31T00:39:34.819Z,7.44
2022-12-31T00:40:09.202Z,7.40
2022-12-31T00:40:42.590Z,7.44
2022-12-31T00:41:17.973Z,7.53
2022-12-31T00:41:51.360Z,7.59
2022-12-31T00:42:24.875Z,7.58
2022-12-31T00:42:58.337Z,7.53
2022-12-31T00:43:32.433Z,7.52
2022-12-31T00:44:06.154Z,7.51
2022-12-31T00:44:39.616Z,7.54
2022-12-31T00:45:13.125Z,7.56
2022-12-31T00:45:46.586Z,7.53
2022-12-31T00:46:21.112Z,7.54
2022-12-31T00:46:54.562Z,7.53
2022-12-31T00:47:28.126Z,7.52
2022-12-31T00:48:01.727Z,7.52
2022-12-31T00:48:35.884Z,7.52
2022-12-31T00:49:09.573Z,7.54
2022-12-31T00:49:43.101Z,7.54
2022-12-31T00:50:16.612Z,7.54
2022-12-31T00:50:50.114Z,7.58
2022-12-31T00:51:27.675Z,7.63
2022-12-31T00:52:01.309Z,7.59
2022-12-31T00:52:34.865Z,7.60
2022-12-31T00:53:08.331Z,7.59
2022-12-31T00:53:42.193Z,7.58
2022-12-31T00:54:15.770Z,7.58
2022-12-31T00:54:49.213Z,7.58
2022-12-31T00:55:22.654Z,7.60
2022-12-31T00:56:03.415Z,7.56
2022-12-31T00:56:36.799Z,7.55
2022-12-31T00:57:10.492Z,7.56
2022-12-31T00:57:44.067Z,7.59
2022-12-31T00:58:17.521Z,7.63
2022-12-31T00:58:51.645Z,7.62
2022-12-31T00:59:27.166Z,7.61
2022-12-31T01:00:00.660Z,7.59
2022-12-31T01:00:34.139Z,7.61
2022-12-31T01:01:15.136Z,7.64
2022-12-31T01:01:50.330Z,7.60
2022-12-31T01:02:23.983Z,7.58
2022-12-31T01:02:57.677Z,7.65
2022-12-31T01:03:31.339Z,7.62
2022-12-31T01:04:13.676Z,7.62
2022-12-31T01:04:47.044Z,7.60
2022-12-31T01:05:20.593Z,7.59
2022-12-31T01:05:59.434Z,7.58
2022-12-31T01:06:33.180Z,7.60
2022-12-31T01:07:06.680Z,7.60
2022-12-31T01:07:40.124Z,7.61
2022-12-31T01:08:13.595Z,7.63
2022-12-31T01:08:49.049Z,7.68
2022-12-31T01:09:22.505Z,7.79
2022-12-31T01:09:57.420Z,7.72
2022-12-31T01:10:49.693Z,7.65
2022-12-31T01:11:23.845Z,7.60
2022-12-31T01:11:57.309Z,7.59
2022-12-31T01:12:32.513Z,7.65
2022-12-31T01:13:12.655Z,7.67
2022-12-31T01:13:50.089Z,7.68
2022-12-31T01:14:23.516Z,7.74
2022-12-31T01:14:57.027Z,7.74
2022-12-31T01:15:38.103Z,7.67
2022-12-31T01:16:13.714Z,7.70
2022-12-31T01:16:50.688Z,7.68
2022-12-31T01:17:24.093Z,7.65
2022-12-31T01:17:57.597Z,7.75
2022-12-31T01:18:30.993Z,7.86
2022-12-31T01:19:09.314Z,7.81
2022-12-31T01:19:43.546Z,7.79
2022-12-31T01:20:17.029Z,7.78
2022-12-31T01:20:50.416Z,7.77
2022-12-31T01:21:23.862Z,7.74
2022-12-31T01:21:57.562Z,7.76
2022-12-31T01:22:30.975Z,7.73
2022-12-31T01:23:04.874Z,7.74
2022-12-31T01:23:39.026Z,7.75
2022-12-31T01:24:13.437Z,7.75
2022-12-31T01:24:46.904Z,7.76
2022-12-31T01:25:20.301Z,7.77
2022-12-31T01:25:53.788Z,7.81
2022-12-31T01:26:28.177Z,7.81
2022-12-31T01:27:01.839Z,7.80
2022-12-31T01:27:35.401Z,7.80
2022-12-31T01:28:09.175Z,7.83
2022-12-31T01:28:43.001Z,7.84
2022-12-31T01:29:17.267Z,7.87
2022-12-31T01:29:50.897Z,7.88
2022-12-31T01:30:24.385Z,7.89
2022-12-31T01:30:58.143Z,7.92
2022-12-31T01:31:34.034Z,7.93
2022-12-31T01:32:07.488Z,7.92
2022-12-31T01:32:40.909Z,7.93
2022-12-31T01:33:14.280Z,7.94
2022-12-31T01:33:48.322Z,7.94
2022-12-31T01:34:21.980Z,7.92
2022-12-31T01:34:55.470Z,7.92
2022-12-31T01:35:28.886Z,7.95
2022-12-31T01:36:11.619Z,7.97
2022-12-31T01:36:44.995Z,8.04
2022-12-31T01:37:18.441Z,8.16
2022-12-31T01:37:51.998Z,8.11
2022-12-31T01:38:25.465Z,8.11
2022-12-31T01:39:00.976Z,8.15
2022-12-31T01:39:34.458Z,8.10
2022-12-31T01:40:08.204Z,8.07
2022-12-31T01:40:42.144Z,8.07
2022-12-31T01:41:26.492Z,8.07
2022-12-31T01:41:59.884Z,8.13
2022-12-31T01:42:33.272Z,8.07
2022-12-31T01:43:18.901Z,8.07
2022-12-31T01:43:59.226Z,7.97
2022-12-31T01:44:32.850Z,8.05
2022-12-31T01:45:12.603Z,8.05
2022-12-31T01:45:53.277Z,8.07
2022-12-31T01:46:37.528Z,8.08
2022-12-31T01:47:18.170Z,8.02
2022-12-31T01:47:57.431Z,8.01
2022-12-31T01:48:30.872Z,7.99
2022-12-31T01:49:19.697Z,8.01
2022-12-31T01:50:03.711Z,8.06
2022-12-31T01:50:40.060Z,8.08
2022-12-31T01:51:13.963Z,8.23
2022-12-31T01:51:53.135Z,8.24
2022-12-31T01:52:33.099Z,8.10
2022-12-31T01:53:08.776Z,8.06
2022-12-31T01:53:43.713Z,8.01
2022-12-31T01:54:22.089Z,8.11
2022-12-31T01:55:06.426Z,8.11
2022-12-31T01:55:48.743Z,8.06
2022-12-31T01:56:23.547Z,8.10
2022-12-31T01:56:57.683Z,8.15
2022-12-31T01:57:32.025Z,8.09
2022-12-31T01:58:11.942Z,8.05
2022-12-31T01:58:49.163Z,8.05
2022-12-31T01:59:27.510Z,8.03
2022-12-31T02:00:02.093Z,8.02
2022-12-31T02:00:38.309Z,7.99
2022-12-31T02:01:17.689Z,7.99
2022-12-31T02:01:54.557Z,8.00
2022-12-31T02:02:28.423Z,8.01
2022-12-31T02:03:03.859Z,8.07
2022-12-31T02:03:37.637Z,8.03
2022-12-31T02:04:13.688Z,8.07
2022-12-31T02:04:49.247Z,8.08
2022-12-31T02:05:48.737Z,8.03
2022-12-31T02:06:29.365Z,7.93
2022-12-31T02:07:05.552Z,7.95
2022-12-31T02:07:39.919Z,8.11
2022-12-31T02:08:13.519Z,8.07
2022-12-31T02:08:47.724Z,8.03
2022-12-31T02:09:21.366Z,7.99
2022-12-31T02:09:54.816Z,7.97
2022-12-31T02:10:28.251Z,8.00
2022-12-31T02:11:01.827Z,8.01
2022-12-31T02:11:38.187Z,8.00
2022-12-31T02:12:12.032Z,8.01
2022-12-31T02:12:46.322Z,8.01
2022-12-31T02:13:19.801Z,8.00
2022-12-31T02:13:58.658Z,8.02
2022-12-31T02:14:44.052Z,8.01
2022-12-31T02:15:17.793Z,8.01
2022-12-31T02:16:09.110Z,7.98
2022-12-31T02:16:48.292Z,8.01
2022-12-31T02:17:59.397Z,7.98
2022-12-31T02:18:58.943Z,7.97
2022-12-31T02:19:41.055Z,8.00
2022-12-31T02:20:33.237Z,8.01
2022-12-31T02:21:30.575Z,7.97
2022-12-31T02:22:22.983Z,7.96
2022-12-31T02:23:02.027Z,7.95
2022-12-31T02:23:45.174Z,7.94
2022-12-31T02:24:37.337Z,7.99
2022-12-31T02:25:35.951Z,7.98
2022-12-31T02:26:21.414Z,7.95
2022-12-31T02:27:19.434Z,7.96
2022-12-31T02:28:18.112Z,7.96
2022-12-31T02:29:08.525Z,7.98
2022-12-31T02:30:09.442Z,7.97
2022-12-31T02:30:47.583Z,7.94
2022-12-31T02:31:37.421Z,7.92
2022-12-31T02:32:32.788Z,7.94
2022-12-31T02:33:35.737Z,7.92
2022-12-31T02:34:27.699Z,7.90
2022-12-31T02:35:08.670Z,7.87
2022-12-31T02:35:49.716Z,7.88
2022-12-31T02:36:28.121Z,7.88
2022-12-31T02:37:05.152Z,7.91
2022-12-31T02:37:42.084Z,8.05
2022-12-31T02:38:26.854Z,8.00
2022-12-31T02:39:03.047Z,7.96
2022-12-31T02:39:37.050Z,7.94
2022-12-31T02:40:14.959Z,7.96
2022-12-31T02:40:49.130Z,7.96
2022-12-31T02:42:01.266Z,7.96
2022-12-31T02:42:34.714Z,7.97
2022-12-31T02:43:08.193Z,8.01
2022-12-31T02:43:47.668Z,8.04
2022-12-31T02:44:26.819Z,8.03
2022-12-31T02:45:00.229Z,8.02
2022-12-31T02:45:47.656Z,8.09
2022-12-31T02:46:29.726Z,8.05
2022-12-31T02:47:09.107Z,8.07
2022-12-31T02:47:58.531Z,8.12
2022-12-31T02:48:37.991Z,8.17
2022-12-31T02:51:05.805Z,8.06
2022-12-31T02:51:50.678Z,8.00
2022-12-31T02:52:53.563Z,8.03
2022-12-31T02:54:11.893Z,8.03
2022-12-31T02:55:03.776Z,7.99
2022-12-31T02:55:49.773Z,8.01
2022-12-31T02:56:31.662Z,8.07
2022-12-31T02:57:20.648Z,8.05
2022-12-31T02:58:12.147Z,8.01
2022-12-31T02:59:15.841Z,8.09
2022-12-31T03:00:22.245Z,8.03
2022-12-31T03:01:17.189Z,8.02
2022-12-31T03:02:16.294Z,8.03
2022-12-31T03:02:53.041Z,8.04
2022-12-31T03:03:27.812Z,8.09
2022-12-31T03:04:21.542Z,8.11
2022-12-31T03:04:57.097Z,8.08
2022-12-31T03:05:34.666Z,8.15
2022-12-31T03:06:09.782Z,8.16
2022-12-31T03:06:43.421Z,8.19
2022-12-31T03:07:23.422Z,8.19
2022-12-31T03:07:56.880Z,8.23
2022-12-31T03:08:30.723Z,8.26
2022-12-31T03:09:13.214Z,8.37
2022-12-31T03:09:46.957Z,8.32
2022-12-31T03:10:20.548Z,8.31
2022-12-31T03:10:54.144Z,8.30
2022-12-31T03:11:46.213Z,8.27
2022-12-31T03:12:41.429Z,8.27
2022-12-31T03:13:14.789Z,8.27
2022-12-31T03:13:48.363Z,8.29
2022-12-31T03:14:21.728Z,8.30
2022-12-31T03:14:55.285Z,8.34
2022-12-31T03:15:31.589Z,8.32
2022-12-31T03:16:04.975Z,8.34
2022-12-31T03:16:38.439Z,8.34
2022-12-31T03:17:12.540Z,8.36
2022-12-31T03:17:53.515Z,8.34
2022-12-31T03:18:46.979Z,8.36
2022-12-31T03:19:39.040Z,8.32
2022-12-31T03:20:31.301Z,8.30
2022-12-31T03:21:31.535Z,8.30
2022-12-31T03:22:23.469Z,8.28
2022-12-31T03:22:56.941Z,8.30
2022-12-31T03:23:33.782Z,8.30
2022-12-31T03:24:26.308Z,8.29
2022-12-31T03:25:34.177Z,8.30
2022-12-31T03:26:10.929Z,8.29
2022-12-31T03:26:44.303Z,8.29
2022-12-31T03:27:17.636Z,8.33
2022-12-31T03:27:51.299Z,8.33
2022-12-31T03:28:27.805Z,8.34
2022-12-31T03:29:01.203Z,8.34
2022-12-31T03:29:34.677Z,8.39
2022-12-31T03:30:09.291Z,8.40
2022-12-31T03:30:45.501Z,8.40
2022-12-31T03:31:19.034Z,8.41
2022-12-31T03:31:52.456Z,8.43
2022-12-31T03:32:26.028Z,8.42
2022-12-31T03:32:59.951Z,8.42
2022-12-31T03:33:35.978Z,8.43
2022-12-31T03:34:09.646Z,8.42
2022-12-31T03:34:43.054Z,8.45
2022-12-31T03:35:19.424Z,8.45
2022-12-31T03:35:53.813Z,8.45
2022-12-31T03:36:29.877Z,8.45
2022-12-31T03:37:03.430Z,8.50
2022-12-31T03:37:36.797Z,8.47
2022-12-31T03:38:10.277Z,8.46
2022-12-31T03:38:46.367Z,8.48
2022-12-31T03:39:21.934Z,8.52
2022-12-31T03:39:55.341Z,8.49
2022-12-31T03:40:30.390Z,8.48
2022-12-31T03:41:03.904Z,8.48
2022-12-31T03:41:37.384Z,8.49
2022-12-31T03:42:10.715Z,8.49
2022-12-31T03:42:44.205Z,8.51
2022-12-31T03:43:19.490Z,8.51
2022-12-31T03:43:53.109Z,8.49
2022-12-31T03:44:26.512Z,8.52
2022-12-31T03:45:00.003Z,8.57
2022-12-31T03:45:34.780Z,8.56
2022-12-31T03:46:09.430Z,8.55
2022-12-31T03:46:43.023Z,8.54
2022-12-31T03:47:16.434Z,8.57
2022-12-31T03:47:49.987Z,8.61
2022-12-31T03:48:23.973Z,8.59
2022-12-31T03:48:57.449Z,8.58
2022-12-31T03:49:30.801Z,8.60
2022-12-31T03:50:05.802Z,8.59
2022-12-31T03:50:39.220Z,8.59
2022-12-31T03:51:12.811Z,8.59
2022-12-31T03:51:46.201Z,8.61
2022-12-31T03:52:19.524Z,8.70
2022-12-31T03:52:52.918Z,8.65
2022-12-31T03:53:26.353Z,8.67
2022-12-31T03:53:59.687Z,8.67
2022-12-31T03:54:33.506Z,8.67
2022-12-31T03:55:08.000Z,8.71
2022-12-31T03:55:41.505Z,8.70
2022-12-31T03:56:14.862Z,8.72
2022-12-31T03:56:49.625Z,8.71
2022-12-31T03:57:24.268Z,8.71
2022-12-31T03:57:57.661Z,8.70
2022-12-31T03:58:31.060Z,8.74
2022-12-31T03:59:04.427Z,8.76
2022-12-31T03:59:39.306Z,8.75
2022-12-31T04:00:15.599Z,8.74
2022-12-31T04:00:49.388Z,8.76
2022-12-31T04:01:24.765Z,8.77
2022-12-31T04:01:58.508Z,8.81
2022-12-31T04:02:32.499Z,8.82
2022-12-31T04:03:05.981Z,8.84
2022-12-31T04:03:39.504Z,8.84
2022-12-31T04:04:12.888Z,8.85
2022-12-31T04:04:46.587Z,8.86
2022-12-31T04:05:21.350Z,8.90
2022-12-31T04:05:56.191Z,8.89
2022-12-31T04:06:29.594Z,8.89
2022-12-31T04:07:03.600Z,8.92
2022-12-31T04:07:37.799Z,8.94
2022-12-31T04:08:11.370Z,8.95
2022-12-31T04:08:44.816Z,8.97
2022-12-31T04:09:20.250Z,8.97
2022-12-31T04:09:53.685Z,8.98
2022-12-31T04:10:27.322Z,9.00
2022-12-31T04:11:00.881Z,9.04
2022-12-31T04:11:36.157Z,9.05
2022-12-31T04:12:09.480Z,9.06
2022-12-31T04:12:43.679Z,9.04
2022-12-31T04:13:17.113Z,9.06
2022-12-31T04:13:50.487Z,9.08
2022-12-31T04:14:23.963Z,9.08
2022-12-31T04:14:57.673Z,9.07
2022-12-31T04:15:31.191Z,9.10
2022-12-31T04:16:05.099Z,9.15
2022-12-31T04:16:38.627Z,9.19
2022-12-31T04:17:12.546Z,9.18
2022-12-31T04:17:46.741Z,9.15
2022-12-31T04:18:20.406Z,9.22
2022-12-31T04:18:53.785Z,9.30
2022-12-31T04:19:27.320Z,9.27
2022-12-31T04:20:00.892Z,9.21
2022-12-31T04:20:34.395Z,9.22
2022-12-31T04:21:07.865Z,9.21
2022-12-31T04:21:41.268Z,9.24
2022-12-31T04:22:14.729Z,9.23
2022-12-31T04:22:48.095Z,9.23
2022-12-31T04:23:21.505Z,9.25
2022-12-31T04:23:55.945Z,9.30
2022-12-31T04:24:29.459Z,9.29
2022-12-31T04:25:02.963Z,9.30
2022-12-31T04:25:36.597Z,9.29
2022-12-31T04:26:10.005Z,9.29
2022-12-31T04:26:44.272Z,9.28
2022-12-31T04:27:17.699Z,9.36
2022-12-31T04:27:51.100Z,9.35
2022-12-31T04:28:24.415Z,9.34
2022-12-31T04:28:57.878Z,9.33
2022-12-31T04:29:31.321Z,9.34
2022-12-31T04:30:05.165Z,9.34
2022-12-31T04:30:38.580Z,9.35
2022-12-31T04:31:12.260Z,9.49
2022-12-31T04:31:47.728Z,9.50
2022-12-31T04:32:21.154Z,9.49
2022-12-31T04:32:54.492Z,9.46
2022-12-31T04:33:28.036Z,9.41
2022-12-31T04:34:01.945Z,9.40
2022-12-31T04:34:35.975Z,9.39
2022-12-31T04:35:10.791Z,9.39
2022-12-31T04:35:44.710Z,9.40
2022-12-31T04:36:18.126Z,9.40
2022-12-31T04:36:51.587Z,9.40
2022-12-31T04:37:25.069Z,9.40
2022-12-31T04:37:58.406Z,9.41
2022-12-31T04:38:32.401Z,9.41
2022-12-31T04:39:05.858Z,9.42
2022-12-31T04:39:39.951Z,9.43
2022-12-31T04:40:13.362Z,9.44
2022-12-31T04:41:05.189Z,9.44
2022-12-31T04:41:38.525Z,9.42
2022-12-31T04:42:11.939Z,9.41
2022-12-31T04:42:45.291Z,9.45
2022-12-31T04:43:18.676Z,9.48
2022-12-31T04:43:54.424Z,9.44
2022-12-31T04:44:27.886Z,9.46
2022-12-31T04:45:01.222Z,9.42
2022-12-31T04:45:35.033Z,9.40
2022-12-31T04:46:08.662Z,9.44
2022-12-31T04:46:42.151Z,9.43
2022-12-31T04:47:21.755Z,9.44
2022-12-31T04:47:56.832Z,9.43
2022-12-31T04:48:30.266Z,9.45
2022-12-31T04:49:04.121Z,9.49
2022-12-31T04:49:37.581Z,9.48
2022-12-31T04:50:10.897Z,9.50
2022-12-31T04:50:46.320Z,9.49
2022-12-31T04:51:21.083Z,9.48
2022-12-31T04:51:54.527Z,9.55
2022-12-31T04:52:27.942Z,9.59
2022-12-31T04:53:01.396Z,9.54
2022-12-31T04:53:34.854Z,9.50
2022-12-31T04:54:08.236Z,9.48
2022-12-31T04:54:41.555Z,9.45
2022-12-31T04:55:14.938Z,9.47
2022-12-31T04:55:48.295Z,9.47
2022-12-31T04:56:22.031Z,9.51
2022-12-31T04:56:55.532Z,9.55
2022-12-31T04:57:28.869Z,9.57
2022-12-31T04:58:05.100Z,9.58
2022-12-31T04:58:39.558Z,9.53
2022-12-31T04:59:13.179Z,9.51
2022-12-31T04:59:46.512Z,9.53
2022-12-31T05:00:20.083Z,9.52
2022-12-31T05:00:54.800Z,9.52
2022-12-31T05:01:28.307Z,9.52
2022-12-31T05:02:01.843Z,9.52
2022-12-31T05:02:35.515Z,9.51
2022-12-31T05:03:11.455Z,9.53
2022-12-31T05:03:44.989Z,9.53
2022-12-31T05:04:18.419Z,9.52
2022-12-31T05:04:51.753Z,9.53
2022-12-31T05:05:25.163Z,9.53
2022-12-31T05:06:07.169Z,9.54
2022-12-31T05:06:40.473Z,9.54
2022-12-31T05:07:13.864Z,9.54
2022-12-31T05:07:47.145Z,9.54
2022-12-31T05:08:20.961Z,9.55
2022-12-31T05:08:54.429Z,9.57
2022-12-31T05:09:28.495Z,9.58
2022-12-31T05:10:02.249Z,9.69
2022-12-31T05:10:36.401Z,9.65
2022-12-31T05:11:10.709Z,9.57
2022-12-31T05:11:44.225Z,9.55
2022-12-31T05:12:17.606Z,9.54
2022-12-31T05:12:51.051Z,9.56
2022-12-31T05:13:28.091Z,9.56
2022-12-31T05:14:06.599Z,9.61
2022-12-31T05:14:39.979Z,9.60
2022-12-31T05:15:13.464Z,9.58
2022-12-31T05:15:47.832Z,9.56
2022-12-31T05:16:21.374Z,9.60
2022-12-31T05:16:55.224Z,9.70
2022-12-31T05:17:28.557Z,9.64
2022-12-31T05:18:02.297Z,9.65
2022-12-31T05:18:36.692Z,9.62
2022-12-31T05:19:10.782Z,9.58
2022-12-31T05:19:44.271Z,9.57
2022-12-31T05:20:17.790Z,9.59
2022-12-31T05:20:51.219Z,9.64
2022-12-31T05:21:24.556Z,9.62
2022-12-31T05:22:16.474Z,9.68
2022-12-31T05:22:49.907Z,9.57
2022-12-31T05:23:23.779Z,9.52
2022-12-31T05:23:57.505Z,9.52
2022-12-31T05:24:30.985Z,9.51
2022-12-31T05:25:04.749Z,9.54
2022-12-31T05:25:38.342Z,9.52
2022-12-31T05:26:11.686Z,9.51
2022-12-31T05:26:45.176Z,9.52
2022-12-31T05:27:18.705Z,9.48
2022-12-31T05:27:52.039Z,9.51
2022-12-31T05:28:25.755Z,9.52
2022-12-31T05:29:00.605Z,9.54
2022-12-31T05:29:34.122Z,9.50
2022-12-31T05:30:08.301Z,9.47
2022-12-31T05:30:42.310Z,9.45
2022-12-31T05:31:15.826Z,9.45
2022-12-31T05:31:49.236Z,9.44
2022-12-31T05:32:22.709Z,9.44
2022-12-31T05:32:56.326Z,9.44
2022-12-31T05:33:29.845Z,9.45
2022-12-31T05:34:03.340Z,9.49
2022-12-31T05:34:36.722Z,9.45
2022-12-31T05:35:10.211Z,9.44
2022-12-31T05:35:43.709Z,9.42
2022-12-31T05:36:17.159Z,9.42
2022-12-31T05:36:50.525Z,9.40
2022-12-31T05:37:24.014Z,9.40
2022-12-31T05:37:57.546Z,9.38
2022-12-31T05:38:30.981Z,9.44
2022-12-31T05:39:04.603Z,9.44
2022-12-31T05:39:37.984Z,9.39
2022-12-31T05:40:12.476Z,9.39
2022-12-31T05:40:45.870Z,9.38
2022-12-31T05:41:20.778Z,9.36
2022-12-31T05:41:54.216Z,9.41
2022-12-31T05:42:27.800Z,9.39
2022-12-31T05:43:01.857Z,9.37
2022-12-31T05:43:36.622Z,9.43
2022-12-31T05:44:11.012Z,9.42
2022-12-31T05:44:44.619Z,9.39
2022-12-31T05:45:18.737Z,9.41
2022-12-31T05:45:52.117Z,9.37
2022-12-31T05:46:25.603Z,9.35
2022-12-31T05:46:58.997Z,9.32
2022-12-31T05:47:32.765Z,9.32
2022-12-31T05:48:06.824Z,9.31
2022-12-31T05:48:40.193Z,9.30
2022-12-31T05:49:13.632Z,9.34
2022-12-31T05:49:47.081Z,9.33
2022-12-31T05:50:20.451Z,9.35
2022-12-31T05:51:01.191Z,9.33
2022-12-31T05:51:34.518Z,9.36
2022-12-31T05:52:08.371Z,9.34
2022-12-31T05:52:47.411Z,9.33
2022-12-31T05:53:21.254Z,9.28
2022-12-31T05:53:54.708Z,9.28
2022-12-31T05:54:28.375Z,9.28
2022-12-31T05:55:02.151Z,9.29
2022-12-31T05:55:35.536Z,9.37
2022-12-31T05:56:09.022Z,9.40
2022-12-31T05:56:42.386Z,9.40
2022-12-31T05:57:15.909Z,9.33
2022-12-31T05:57:49.303Z,9.29
2022-12-31T05:58:22.840Z,9.30
2022-12-31T05:58:56.460Z,9.31
2022-12-31T05:59:30.065Z,9.35
2022-12-31T06:00:06.327Z,9.33
2022-12-31T06:00:46.745Z,9.37
2022-12-31T06:01:20.358Z,9.34
2022-12-31T06:01:54.231Z,9.29
2022-12-31T06:02:27.615Z,9.28
2022-12-31T06:03:01.106Z,9.25
2022-12-31T06:03:34.686Z,9.27
2022-12-31T06:04:08.171Z,9.31
2022-12-31T06:04:41.753Z,9.31
2022-12-31T06:05:15.070Z,9.30
2022-12-31T06:05:48.494Z,9.30
2022-12-31T06:06:22.008Z,9.38
2022-12-31T06:06:55.533Z,9.36
2022-12-31T06:07:29.091Z,9.46
2022-12-31T06:08:02.552Z,9.48
2022-12-31T06:08:35.932Z,9.47
2022-12-31T06:09:09.741Z,9.41
2022-12-31T06:09:43.133Z,9.41
2022-12-31T06:10:16.647Z,9.41
2022-12-31T06:10:50.486Z,9.36
2022-12-31T06:11:24.099Z,9.38
2022-12-31T06:11:58.238Z,9.40
2022-12-31T06:12:31.635Z,9.37
2022-12-31T06:13:05.371Z,9.37
2022-12-31T06:13:38.687Z,9.40
2022-12-31T06:14:13.134Z,9.35
2022-12-31T06:14:46.473Z,9.35
2022-12-31T06:15:19.921Z,9.31
2022-12-31T06:15:53.773Z,9.31
2022-12-31T06:16:27.430Z,9.27
2022-12-31T06:17:01.036Z,9.29
2022-12-31T06:17:34.435Z,9.28
2022-12-31T06:18:08.121Z,9.26
2022-12-31T06:18:41.639Z,9.28
2022-12-31T06:19:15.085Z,9.24
2022-12-31T06:19:48.960Z,9.23
2022-12-31T06:20:22.339Z,9.25
2022-12-31T06:20:58.602Z,9.25
2022-12-31T06:21:32.164Z,9.25
2022-12-31T06:22:05.541Z,9.23
2022-12-31T06:22:38.954Z,9.23
2022-12-31T06:23:12.301Z,9.22
2022-12-31T06:23:46.281Z,9.21
2022-12-31T06:24:19.741Z,9.22
2022-12-31T06:24:53.097Z,9.18
2022-12-31T06:25:26.535Z,9.21
2022-12-31T06:26:05.132Z,9.19
2022-12-31T06:26:38.538Z,9.16
2022-12-31T06:27:11.996Z,9.16
2022-12-31T06:27:45.496Z,9.16
2022-12-31T06:28:20.600Z,9.14
2022-12-31T06:28:54.596Z,9.13
2022-12-31T06:29:28.045Z,9.16
2022-12-31T06:30:01.440Z,9.16
2022-12-31T06:30:34.842Z,9.14
2022-12-31T06:31:12.117Z,9.16
2022-12-31T06:31:45.611Z,9.12
2022-12-31T06:32:18.958Z,9.13
2022-12-31T06:32:52.378Z,9.13
2022-12-31T06:33:25.925Z,9.12
2022-12-31T06:33:59.391Z,9.13
2022-12-31T06:34:32.865Z,9.16
2022-12-31T06:35:07.333Z,9.14
2022-12-31T06:35:40.698Z,9.18
2022-12-31T06:36:15.867Z,9.22
2022-12-31T06:36:50.427Z,9.18
2022-12-31T06:37:23.959Z,9.13
2022-12-31T06:37:57.383Z,9.15
2022-12-31T06:38:33.873Z,9.17
2022-12-31T06:39:07.336Z,9.13
2022-12-31T06:39:40.779Z,9.14
2022-12-31T06:40:14.453Z,9.17
2022-12-31T06:40:47.785Z,9.20
2022-12-31T06:41:22.191Z,9.20
2022-12-31T06:41:55.756Z,9.21
2022-12-31T06:42:31.293Z,9.19
2022-12-31T06:43:04.725Z,9.19
2022-12-31T06:43:39.608Z,9.23
2022-12-31T06:44:13.102Z,9.19
2022-12-31T06:44:47.860Z,9.18
2022-12-31T06:45:21.309Z,9.17
2022-12-31T06:45:54.876Z,9.19
2022-12-31T06:46:29.213Z,9.16
2022-12-31T06:47:04.502Z,9.14
2022-12-31T06:47:38.063Z,9.14
2022-12-31T06:48:11.501Z,9.18
2022-12-31T06:48:45.809Z,9.20
2022-12-31T06:49:21.806Z,9.21
2022-12-31T06:49:55.202Z,9.20
2022-12-31T06:50:28.716Z,9.17
2022-12-31T06:51:10.620Z,9.21
2022-12-31T06:51:47.999Z,9.15
2022-12-31T06:52:21.912Z,9.21
2022-12-31T06:52:55.373Z,9.21
2022-12-31T06:53:28.904Z,9.24
2022-12-31T06:54:02.457Z,9.26
2022-12-31T06:54:36.199Z,9.28
2022-12-31T06:55:10.416Z,9.27
2022-12-31T06:55:46.954Z,9.28
2022-12-31T06:56:26.501Z,9.29
2022-12-31T06:57:04.474Z,9.30
2022-12-31T06:57:38.194Z,9.29
2022-12-31T06:58:15.962Z,9.33
2022-12-31T06:58:50.200Z,9.41
2022-12-31T06:59:26.953Z,9.43
2022-12-31T07:00:00.599Z,9.40
2022-12-31T07:00:34.226Z,9.42
2022-12-31T07:01:26.004Z,9.42
2022-12-31T07:02:13.548Z,9.44
2022-12-31T07:03:13.598Z,9.44
2022-12-31T07:03:59.795Z,9.43
2022-12-31T07:04:42.408Z,9.42
2022-12-31T07:05:58.109Z,9.46
2022-12-31T07:06:44.310Z,9.41
2022-12-31T07:07:24.179Z,9.38
2022-12-31T07:08:27.784Z,9.43
2022-12-31T07:09:16.896Z,9.38
2022-12-31T07:10:00.740Z,9.36
2022-12-31T07:10:41.669Z,9.42
2022-12-31T07:11:26.581Z,9.40
2022-12-31T07:12:16.060Z,9.38
2022-12-31T07:13:20.451Z,9.38
2022-12-31T07:13:59.719Z,9.37
2022-12-31T07:14:52.178Z,9.39
2022-12-31T07:15:42.029Z,9.45
2022-12-31T07:17:00.935Z,9.40
2022-12-31T07:17:34.259Z,9.40
2022-12-31T07:18:35.634Z,9.42
2022-12-31T07:19:37.478Z,9.49
2022-12-31T07:20:14.200Z,9.47
2022-12-31T07:20:47.914Z,9.48
2022-12-31T07:21:33.924Z,9.51
2022-12-31T07:22:14.345Z,9.51
2022-12-31T07:22:48.466Z,9.52
2022-12-31T07:23:22.194Z,9.59
2022-12-31T07:23:55.970Z,9.63
2022-12-31T07:24:29.665Z,9.65
2022-12-31T07:25:04.165Z,9.67
2022-12-31T07:25:41.359Z,9.69
2022-12-31T07:26:44.612Z,9.69
2022-12-31T07:27:35.140Z,9.64
2022-12-31T07:28:33.649Z,9.64
2022-12-31T07:29:23.410Z,9.64
2022-12-31T07:30:02.359Z,9.64
2022-12-31T07:31:07.082Z,9.68
2022-12-31T07:32:05.740Z,9.68
2022-12-31T07:33:03.646Z,9.69
2022-12-31T07:33:37.041Z,9.70
2022-12-31T07:34:32.280Z,9.69
2022-12-31T07:35:35.624Z,9.70
2022-12-31T07:36:18.305Z,9.70
2022-12-31T07:37:13.366Z,9.71
2022-12-31T07:38:02.667Z,9.70
2022-12-31T07:38:49.520Z,9.73
2022-12-31T07:39:41.904Z,9.77
2022-12-31T07:40:30.352Z,9.77
2022-12-31T07:41:17.437Z,9.77
2022-12-31T07:41:53.716Z,9.76
2022-12-31T07:42:47.770Z,9.78
2022-12-31T07:43:58.639Z,9.77
2022-12-31T07:44:32.010Z,9.78
2022-12-31T07:45:27.082Z,9.78
2022-12-31T07:46:31.082Z,9.78
2022-12-31T07:47:13.429Z,9.77
2022-12-31T07:47:47.000Z,9.78
2022-12-31T07:48:26.196Z,9.79
2022-12-31T07:49:00.209Z,9.81
2022-12-31T07:49:34.495Z,9.82
2022-12-31T07:50:15.278Z,9.83
2022-12-31T07:50:49.167Z,9.83
2022-12-31T07:51:22.934Z,9.84
2022-12-31T07:51:56.626Z,9.84
2022-12-31T07:52:30.212Z,9.85
2022-12-31T07:53:04.065Z,9.88
2022-12-31T07:53:38.247Z,9.90
2022-12-31T07:54:14.125Z,9.90
2022-12-31T07:54:48.100Z,9.89
2022-12-31T07:55:21.561Z,9.91
2022-12-31T07:56:00.764Z,9.92
2022-12-31T07:56:34.413Z,9.91
2022-12-31T07:57:07.783Z,9.92
2022-12-31T07:58:01.425Z,9.96
2022-12-31T07:58:40.831Z,9.93
2022-12-31T07:59:41.855Z,9.92
2022-12-31T08:00:16.054Z,9.91
2022-12-31T08:00:53.221Z,9.91
2022-12-31T08:02:12.235Z,9.92
2022-12-31T08:03:01.638Z,9.92
2022-12-31T08:03:55.212Z,9.93
2022-12-31T08:04:31.547Z,9.95
2022-12-31T08:05:17.037Z,9.95
2022-12-31T08:06:12.583Z,9.97
2022-12-31T08:06:48.536Z,9.97
2022-12-31T08:07:43.660Z,9.98
2022-12-31T08:08:41.242Z,10.00
2022-12-31T08:09:20.707Z,10.00
2022-12-31T08:10:18.219Z,10.02
2022-12-31T08:11:03.703Z,10.03
2022-12-31T08:11:40.427Z,10.02
2022-12-31T08:12:15.364Z,10.03
2022-12-31T08:12:50.468Z,10.05
2022-12-31T08:13:24.300Z,10.07
2022-12-31T08:14:01.725Z,10.10
2022-12-31T08:14:43.295Z,10.11
2022-12-31T08:15:19.279Z,10.13
2022-12-31T08:15:53.090Z,10.14
2022-12-31T08:16:27.016Z,10.16
2022-12-31T08:17:00.741Z,10.18
2022-12-31T08:17:34.298Z,10.20
2022-12-31T08:18:08.527Z,10.22
2022-12-31T08:18:42.168Z,10.24
2022-12-31T08:19:26.095Z,10.26
2022-12-31T08:19:59.820Z,10.30